Time;durP1;ratioP1;P1;durP2;ratioP2;P2;SDS_P1;SDS_P2;PMS_P1;PMS_P2;Temp;Humidity;BMP_temperature;BMP_pressure;BME280_temperature;BME280_humidity;BME280_pressure;Samples;Min_cycle;Max_cycle;Signal;HPM_P1;HPM_P2
2022/02/15 00:04:38;;;;;;;4.18;0.90;;;;;;;5.47;82.52;99932.34;4560043;27;16169607;-80
2022/02/15 00:07:05;;;;;;;7.30;1.70;;;;;;;5.52;82.09;99929.41;5108865;28;20147;-81
2022/02/15 00:09:32;;;;;;;5.82;1.42;;;;;;;5.56;82.28;99921.28;5108981;27;20040;-81
2022/02/15 00:11:59;;;;;;;6.25;1.25;;;;;;;5.61;82.63;99917.56;5090624;28;20059;-81
2022/02/15 00:14:25;;;;;;;7.80;1.17;;;;;;;5.67;82.73;99916.22;5090577;28;20051;-81
2022/02/15 00:16:53;;;;;;;15.10;2.53;;;;;;;5.69;82.62;99917.50;5107262;28;20047;-82
2022/02/15 00:19:20;;;;;;;3.90;1.13;;;;;;;5.74;82.58;99902.78;5090555;28;20061;-81
2022/02/15 00:21:47;;;;;;;5.43;0.90;;;;;;;5.76;82.84;99892.25;5089339;28;20036;-81
2022/02/15 00:24:14;;;;;;;6.47;1.00;;;;;;;5.79;82.62;99888.84;5080650;28;20040;-80
2022/02/15 00:26:41;;;;;;;6.13;1.35;;;;;;;5.82;82.38;99888.19;5078225;28;20842;-80
2022/02/15 00:29:08;;;;;;;4.38;1.20;;;;;;;5.83;82.76;99876.84;5074724;28;20048;-80
2022/02/15 00:31:35;;;;;;;8.23;1.20;;;;;;;5.85;82.43;99876.56;5079408;28;20032;-81
2022/02/15 00:34:02;;;;;;;2.03;1.00;;;;;;;5.87;82.72;99864.09;5080671;28;20044;-81
2022/02/15 00:36:30;;;;;;;10.65;1.20;;;;;;;5.92;82.63;99865.81;5080673;28;20055;-81
2022/02/15 00:38:56;;;;;;;3.70;0.88;;;;;;;5.97;82.43;99868.38;5078640;28;20438;-81
2022/02/15 00:41:23;;;;;;;3.70;1.17;;;;;;;5.99;82.43;99852.34;5081813;28;20048;-81
2022/02/15 00:43:50;;;;;;;4.93;1.00;;;;;;;6.01;82.51;99852.84;5078826;28;20125;-80
2022/02/15 00:46:17;;;;;;;6.28;1.05;;;;;;;6.02;82.28;99838.75;5080127;28;20470;-80
2022/02/15 00:48:44;;;;;;;2.95;0.65;;;;;;;6.06;82.15;99838.88;5093254;28;20044;-81
2022/02/15 00:51:11;;;;;;;9.63;1.05;;;;;;;6.09;82.07;99829.94;5063433;28;20047;-80
2022/02/15 00:53:38;;;;;;;6.22;0.90;;;;;;;6.10;81.87;99817.81;5080658;28;20101;-81
2022/02/15 00:56:05;;;;;;;4.68;1.35;;;;;;;6.11;82.01;99808.44;5055036;28;20377;-81
2022/02/15 00:58:32;;;;;;;4.35;1.27;;;;;;;6.11;82.01;99800.22;5081919;28;20059;-81
2022/02/15 01:00:59;;;;;;;5.82;1.20;;;;;;;6.13;81.99;99787.72;5080135;28;20041;-81
2022/02/15 01:03:26;;;;;;;5.97;1.20;;;;;;;6.13;82.08;99779.50;5083577;28;20056;-81
2022/02/15 01:05:53;;;;;;;7.80;1.25;;;;;;;6.12;82.12;99769.63;5101265;28;20065;-81
2022/02/15 01:08:20;;;;;;;3.17;1.10;;;;;;;6.13;81.90;99774.00;5083095;28;20063;-80
2022/02/15 01:10:48;;;;;;;6.38;1.85;;;;;;;6.12;82.11;99768.81;5100071;28;20487;-81
2022/02/15 01:13:16;;;;;;;8.20;1.42;;;;;;;6.13;82.10;99773.19;5080093;28;20127;-81
2022/02/15 01:15:44;;;;;;;6.00;1.25;;;;;;;6.14;81.99;99750.06;5068125;28;20039;-81
2022/02/15 01:18:11;;;;;;;5.97;0.95;;;;;;;6.13;82.17;99746.50;5068137;28;20040;-81
2022/02/15 01:20:38;;;;;;;5.32;1.05;;;;;;;6.14;82.37;99739.09;5067888;28;20043;-81
2022/02/15 01:23:04;;;;;;;3.45;1.00;;;;;;;6.18;82.40;99737.25;5084248;28;20117;-81
2022/02/15 01:25:31;;;;;;;5.97;1.10;;;;;;;6.22;82.29;99735.44;5085904;28;20044;-81
2022/02/15 01:27:58;;;;;;;4.60;0.73;;;;;;;6.24;82.22;99722.16;5067031;28;20050;-81
2022/02/15 01:30:25;;;;;;;6.32;1.17;;;;;;;6.27;82.51;99721.47;5085974;28;20036;-81
2022/02/15 01:32:53;;;;;;;4.03;1.00;;;;;;;6.30;82.38;99701.53;5082101;28;20626;-81
2022/02/15 01:35:20;;;;;;;4.88;0.90;;;;;;;6.33;82.21;99703.59;5084391;28;20052;-81
2022/02/15 01:37:47;;;;;;;4.00;1.10;;;;;;;6.32;82.10;99685.50;5067321;28;20483;-80
2022/02/15 01:40:14;;;;;;;4.25;1.13;;;;;;;6.35;82.25;99679.34;5068541;28;20040;-81
2022/02/15 01:42:41;;;;;;;2.60;0.90;;;;;;;6.33;82.02;99667.84;5060399;28;20556;-80
2022/02/15 01:45:13;;;;;;;7.57;1.38;;;;;;;6.32;82.05;99655.28;5051989;28;20063;-81
2022/02/15 01:47:39;;;;;;;3.58;0.80;;;;;;;6.34;82.29;99655.72;5069161;28;20311;-80
2022/02/15 01:50:07;;;;;;;5.18;1.38;;;;;;;6.36;82.26;99644.38;5069905;28;20043;-80
2022/02/15 01:52:34;;;;;;;5.57;1.00;;;;;;;6.35;82.41;99623.53;5083202;28;20115;-80
2022/02/15 01:55:02;;;;;;;4.93;1.38;;;;;;;6.39;82.89;99627.19;5086941;28;20035;-80
2022/02/15 01:57:30;;;;;;;4.63;1.15;;;;;;;6.42;82.58;99630.06;5087220;28;20044;-80
2022/02/15 01:59:58;;;;;;;4.63;0.98;;;;;;;6.46;82.76;99627.44;5051659;28;20062;-81
2022/02/15 02:02:26;;;;;;;6.88;1.08;;;;;;;6.50;82.79;99626.41;5067625;28;20046;-80
2022/02/15 02:07:40;;;;;;;5.45;0.75;;;;;;;6.58;82.74;99597.16;5086527;28;20032;-80
2022/02/15 02:10:07;;;;;;;10.43;1.25;;;;;;;6.59;82.67;99593.28;5085726;28;20043;-81
2022/02/15 02:12:35;;;;;;;6.45;1.50;;;;;;;6.60;82.79;99595.69;5050964;28;20166;-81
2022/02/15 02:15:14;;;;;;;8.57;1.00;;;;;;;6.66;82.92;99572.28;5067427;28;20050;-81
2022/02/15 02:17:42;;;;;;;3.60;1.33;;;;;;;6.68;82.98;99597.50;5067720;28;20089;-80
2022/02/15 02:20:10;;;;;;;2.40;1.25;;;;;;;6.75;83.28;99589.44;5066796;28;20052;-80
2022/02/15 02:22:37;;;;;;;6.13;1.33;;;;;;;6.79;83.47;99588.75;5085282;28;20040;-81
2022/02/15 02:25:05;;;;;;;2.78;1.20;;;;;;;6.80;83.59;99563.66;5082922;28;20098;-81
2022/02/15 02:27:36;;;;;;;4.45;1.00;;;;;;;6.83;83.91;99570.41;5067147;28;20052;-81
2022/02/15 02:30:03;;;;;;;7.15;1.33;;;;;;;6.83;83.96;99564.91;5065454;28;20046;-81
2022/02/15 02:32:31;;;;;;;5.47;1.92;;;;;;;6.84;84.06;99556.31;5066960;28;20122;-81
2022/02/15 02:35:01;;;;;;;11.75;1.55;;;;;;;6.83;85.00;99551.16;5066238;28;20067;-82
2022/02/15 02:37:28;;;;;;;4.63;1.58;;;;;;;6.82;85.43;99541.28;5065880;28;20531;-81
2022/02/15 02:39:58;;;;;;;10.50;2.90;;;;;;;6.81;85.70;99528.69;5067280;28;20518;-80
2022/02/15 02:42:26;;;;;;;4.32;1.65;;;;;;;6.79;86.09;99493.28;5066755;28;20040;-80
2022/02/15 02:44:56;;;;;;;8.18;1.33;;;;;;;6.77;86.54;99498.34;5051638;28;20040;-80
2022/02/15 02:47:24;;;;;;;9.35;1.60;;;;;;;6.75;86.62;99484.91;5067829;28;20036;-80
2022/02/15 02:49:52;;;;;;;3.97;1.27;;;;;;;6.74;87.16;99485.28;5067106;28;20555;-80
2022/02/15 02:52:21;;;;;;;3.25;1.17;;;;;;;6.73;87.58;99480.94;5067500;28;20040;-81
2022/02/15 02:54:48;;;;;;;7.28;2.03;;;;;;;6.72;87.14;99466.38;5067016;28;20036;-80
2022/02/15 02:57:15;;;;;;;5.85;1.05;;;;;;;6.70;87.86;99457.66;5084827;28;20529;-81
2022/02/15 02:59:46;;;;;;;3.63;1.25;;;;;;;6.74;88.22;99438.53;5065892;28;20422;-81
2022/02/15 03:02:14;;;;;;;4.88;1.20;;;;;;;6.75;87.58;99440.91;5065956;28;20047;-80
2022/02/15 03:04:41;;;;;;;9.35;2.17;;;;;;;6.73;88.31;99406.66;5063395;28;20048;-80
2022/02/15 03:07:08;;;;;;;3.65;1.20;;;;;;;6.76;88.29;99427.97;5049355;28;21159;-80
2022/02/15 03:09:36;;;;;;;11.10;2.00;;;;;;;6.79;88.45;99421.75;5082371;28;20063;-81
2022/02/15 03:12:04;;;;;;;2.53;1.17;;;;;;;6.79;88.34;99416.25;5065051;28;20052;-80
2022/02/15 03:14:31;;;;;;;6.88;1.52;;;;;;;6.81;88.48;99391.16;5082859;28;20497;-80
2022/02/15 03:16:57;;;;;;;2.33;1.05;;;;;;;6.83;88.52;99386.13;5083211;28;20052;-81
2022/02/15 03:19:24;;;;;;;6.25;1.75;;;;;;;6.87;88.60;99371.28;5082513;28;20036;-80
2022/02/15 03:21:51;;;;;;;2.60;1.00;;;;;;;6.88;88.54;99359.13;5066823;28;20040;-80
2022/02/15 03:24:18;;;;;;;5.45;0.90;;;;;;;6.93;88.65;99382.84;5080746;28;20035;-80
2022/02/15 03:26:45;;;;;;;5.32;3.15;;;;;;;6.98;88.51;99375.13;5067716;28;20044;-80
2022/02/15 03:29:12;;;;;;;3.65;1.23;;;;;;;7.00;88.65;99331.53;5065627;28;20483;-79
2022/02/15 03:31:40;;;;;;;4.93;1.23;;;;;;;7.04;88.30;99337.13;5065578;28;20040;-80
2022/02/15 03:34:07;;;;;;;3.83;1.20;;;;;;;7.07;88.71;99317.16;5064781;28;20403;-80
2022/02/15 03:36:34;;;;;;;4.05;1.73;;;;;;;7.10;88.57;99313.66;5084777;28;20044;-80
2022/02/15 03:39:05;;;;;;;8.20;1.23;;;;;;;7.12;88.44;99320.41;5063884;28;20041;-80
2022/02/15 03:44:17;;;;;;;7.65;1.58;;;;;;;7.14;88.31;99315.38;5083646;28;20098;-80
2022/02/15 03:46:45;;;;;;;3.83;1.02;;;;;;;7.16;88.70;99309.50;5084837;28;21047;-79
2022/02/15 03:49:12;;;;;;;5.45;1.00;;;;;;;7.20;89.06;99296.63;5066070;28;20036;-80
2022/02/15 03:51:39;;;;;;;3.72;0.70;;;;;;;7.26;88.23;99319.97;5040119;28;20368;-80
2022/02/15 03:54:07;;;;;;;5.07;0.90;;;;;;;7.29;88.42;99288.97;5084928;28;20450;-79
2022/02/15 03:56:35;;;;;;;2.45;1.35;;;;;;;7.33;88.22;99298.13;5067495;28;20048;-80
2022/02/15 03:59:04;;;;;;;2.60;0.75;;;;;;;7.39;88.26;99290.38;5083645;28;20036;-80
2022/02/15 04:01:34;;;;;;;2.60;0.80;;;;;;;7.40;87.99;99291.97;5047788;28;20502;-79
2022/02/15 04:04:02;;;;;;;5.07;0.95;;;;;;;7.41;87.67;99305.38;5082338;28;20063;-81
2022/02/15 04:06:29;;;;;;;3.15;0.90;;;;;;;7.44;87.91;99310.16;5083592;28;20865;-80
2022/02/15 04:08:56;;;;;;;5.13;1.00;;;;;;;7.48;88.17;99283.50;5065070;28;20110;-79
2022/02/15 04:11:22;;;;;;;3.83;0.60;;;;;;;7.51;88.04;99284.72;5084104;28;20545;-80
2022/02/15 04:13:49;;;;;;;7.30;0.93;;;;;;;7.50;88.00;99292.19;5064450;28;20040;-80
2022/02/15 04:16:16;;;;;;;2.55;0.73;;;;;;;7.48;88.16;99280.75;5081981;28;20044;-80
2022/02/15 04:18:47;;;;;;;3.60;0.52;;;;;;;7.47;88.13;99262.63;5065417;28;20048;-80
2022/02/15 04:21:15;;;;;;;3.72;1.50;;;;;;;7.47;88.20;99259.06;5064779;28;20081;-80
2022/02/15 04:23:42;;;;;;;5.30;0.60;;;;;;;7.47;88.21;99268.13;5040349;28;20044;-80
2022/02/15 04:26:09;;;;;;;4.47;1.35;;;;;;;7.49;88.39;99276.84;5084723;28;20044;-80
2022/02/15 04:28:36;;;;;;;2.60;0.65;;;;;;;7.50;88.41;99267.41;5080666;28;20695;-80
2022/02/15 04:31:03;;;;;;;5.95;0.70;;;;;;;7.53;88.35;99263.13;5064154;28;20127;-80
2022/02/15 04:33:30;;;;;;;2.33;0.63;;;;;;;7.53;88.63;99258.44;5065122;28;20127;-81
2022/02/15 04:35:57;;;;;;;5.05;1.55;;;;;;;7.52;89.40;99254.06;5065412;28;20044;-80
2022/02/15 04:38:24;;;;;;;5.97;1.20;;;;;;;7.52;89.40;99265.09;5064639;28;20044;-80
2022/02/15 04:40:51;;;;;;;2.47;0.77;;;;;;;7.52;89.90;99262.34;5065989;28;20051;-80
2022/02/15 04:43:18;;;;;;;6.13;1.98;;;;;;;7.55;89.75;99282.84;5064992;28;20036;-80
2022/02/15 04:45:47;;;;;;;1.77;0.50;;;;;;;7.56;89.85;99260.47;5063871;28;20119;-80
2022/02/15 04:48:14;;;;;;;1.95;0.63;;;;;;;7.60;89.68;99258.56;5083192;28;20494;-80
2022/02/15 04:50:41;;;;;;;5.22;0.85;;;;;;;7.64;89.46;99251.19;5051419;28;20051;-80
2022/02/15 04:53:08;;;;;;;2.08;0.70;;;;;;;7.70;89.31;99258.03;5051353;28;20051;-80
2022/02/15 04:55:35;;;;;;;3.92;0.68;;;;;;;7.73;89.28;99257.28;5086633;28;20072;-80
2022/02/15 04:58:02;;;;;;;5.43;0.95;;;;;;;7.77;89.05;99274.69;5068288;28;20124;-80
2022/02/15 05:00:29;;;;;;;4.38;0.80;;;;;;;7.80;88.87;99281.44;5052101;28;20044;-80
2022/02/15 05:02:56;;;;;;;7.38;1.52;;;;;;;7.81;88.88;99263.75;5086580;28;20044;-80
2022/02/15 05:05:23;;;;;;;5.40;1.30;;;;;;;7.83;89.00;99276.00;5066839;28;20056;-81
2022/02/15 05:07:50;;;;;;;1.58;0.65;;;;;;;7.83;89.48;99266.94;5084164;28;20123;-82
2022/02/15 05:10:17;;;;;;;5.53;0.80;;;;;;;7.80;89.67;99278.69;5051645;28;20058;-82
2022/02/15 05:12:44;;;;;;;4.53;0.98;;;;;;;7.78;89.83;99281.78;5067675;28;20430;-82
2022/02/15 05:15:11;;;;;;;7.28;1.10;;;;;;;7.76;90.25;99281.34;5068671;28;20044;-80
2022/02/15 05:17:44;;;;;;;6.68;0.60;;;;;;;7.74;90.35;99269.91;5068430;28;20430;-81
2022/02/15 05:20:12;;;;;;;2.65;0.60;;;;;;;7.72;90.54;99298.97;5068040;28;20036;-81
2022/02/15 05:22:39;;;;;;;9.73;1.75;;;;;;;7.70;90.85;99329.66;5069460;28;20067;-81
2022/02/15 05:25:09;;;;;;;7.05;1.10;;;;;;;7.68;91.85;99325.63;5087374;28;20043;-82
2022/02/15 05:27:41;;;;;;;1.83;0.80;;;;;;;7.60;91.62;99323.91;5068402;28;20726;-82
2022/02/15 05:30:12;;;;;;;3.30;0.70;;;;;;;7.56;91.94;99299.03;5087381;28;20063;-81
2022/02/15 05:32:39;;;;;;;1.58;0.68;;;;;;;7.55;91.85;99300.16;5068218;28;20046;-81
2022/02/15 05:35:09;;;;;;;2.15;0.60;;;;;;;7.51;91.91;99301.25;5087283;28;20487;-81
2022/02/15 05:37:39;;;;;;;5.45;1.25;;;;;;;7.48;91.45;99299.22;5067847;28;20056;-82
2022/02/15 05:40:09;;;;;;;4.07;0.75;;;;;;;7.43;91.56;99296.75;5087269;28;20036;-82
2022/02/15 05:42:37;;;;;;;3.75;1.02;;;;;;;7.40;91.93;99301.03;5069215;28;20051;-82
2022/02/15 05:45:05;;;;;;;10.05;1.98;;;;;;;7.39;91.81;99312.41;5067395;28;20051;-82
2022/02/15 05:47:32;;;;;;;10.38;1.50;;;;;;;7.39;92.04;99318.69;5069153;28;20035;-82
2022/02/15 05:52:45;;;;;;;17.25;2.72;;;;;;;7.35;92.29;99328.84;5068362;28;20044;-81
2022/02/15 05:55:14;;;;;;;9.55;1.90;;;;;;;7.37;92.45;99329.25;5068777;28;20089;-82
2022/02/15 05:57:42;;;;;;;9.88;2.45;;;;;;;7.39;92.17;99340.72;5085976;28;20067;-82
2022/02/15 06:00:11;;;;;;;16.42;2.67;;;;;;;7.42;91.97;99345.50;5066117;28;20048;-82
2022/02/15 06:02:38;;;;;;;9.13;2.70;;;;;;;7.40;92.12;99341.50;5084553;28;20471;-82
2022/02/15 06:05:05;;;;;;;13.07;2.22;;;;;;;7.39;91.83;99335.22;5084343;28;20700;-81
2022/02/15 06:07:32;;;;;;;23.30;4.05;;;;;;;7.39;91.62;99326.94;5064537;28;20051;-82
2022/02/15 06:10:01;;;;;;;10.63;2.05;;;;;;;7.33;91.64;99331.16;5067535;28;20052;-82
2022/02/15 06:12:28;;;;;;;17.65;2.55;;;;;;;7.31;91.51;99333.44;5085835;28;20744;-81
2022/02/15 06:14:55;;;;;;;10.90;2.08;;;;;;;7.30;91.48;99351.13;5085000;28;20056;-82
2022/02/15 06:17:22;;;;;;;14.82;3.30;;;;;;;7.30;91.62;99342.88;5067294;28;20081;-81
2022/02/15 06:19:49;;;;;;;15.57;2.92;;;;;;;7.28;91.34;99348.72;5085028;28;20483;-82
2022/02/15 06:22:16;;;;;;;18.48;2.65;;;;;;;7.27;91.23;99349.09;5068657;28;20032;-82
2022/02/15 06:24:43;;;;;;;16.75;2.50;;;;;;;7.25;91.17;99345.91;5048293;28;21948;-81
2022/02/15 06:27:10;;;;;;;15.57;2.33;;;;;;;7.23;90.86;99348.19;5068337;28;20065;-81
2022/02/15 06:29:37;;;;;;;12.80;2.65;;;;;;;7.21;90.68;99345.00;5068210;28;20040;-82
2022/02/15 06:32:04;;;;;;;21.17;4.38;;;;;;;7.20;90.42;99362.69;5066568;28;20105;-82
2022/02/15 06:34:31;;;;;;;19.38;3.00;;;;;;;7.19;90.46;99363.84;5084143;28;20449;-81
2022/02/15 06:36:58;;;;;;;20.98;3.33;;;;;;;7.16;90.30;99359.03;5040087;28;20037;-81
2022/02/15 06:39:25;;;;;;;19.08;3.30;;;;;;;7.13;89.97;99359.75;5086031;28;20426;-81
2022/02/15 06:41:52;;;;;;;20.92;5.30;;;;;;;7.09;89.99;99364.38;5050704;28;20043;-81
2022/02/15 06:44:19;;;;;;;19.10;3.40;;;;;;;7.05;90.26;99363.47;5083137;28;20089;-81
2022/02/15 06:46:46;;;;;;;16.30;3.35;;;;;;;7.02;90.11;99361.44;5067633;28;20036;-81
2022/02/15 06:49:13;;;;;;;19.20;4.05;;;;;;;6.99;89.95;99364.91;5068058;28;20040;-81
2022/02/15 06:51:40;;;;;;;22.08;3.35;;;;;;;6.96;89.95;99363.66;5065337;28;20047;-82
2022/02/15 06:54:07;;;;;;;28.17;5.07;;;;;;;6.95;89.87;99364.81;5065036;28;20052;-81
2022/02/15 06:56:34;;;;;;;21.50;4.13;;;;;;;6.92;89.51;99365.53;5084605;28;20051;-81
2022/02/15 06:59:01;;;;;;;25.58;5.97;;;;;;;6.89;89.54;99359.91;5081593;28;20044;-81
2022/02/15 07:01:28;;;;;;;26.88;4.28;;;;;;;6.87;89.61;99367.72;5064420;28;20035;-81
2022/02/15 07:03:55;;;;;;;19.17;5.13;;;;;;;6.83;89.35;99364.09;5065855;28;20048;-81
2022/02/15 07:06:22;;;;;;;22.10;5.60;;;;;;;6.77;89.47;99374.56;5065976;28;20112;-80
2022/02/15 07:08:49;;;;;;;20.38;4.93;;;;;;;6.74;89.66;99370.56;5083892;28;20048;-81
2022/02/15 07:11:16;;;;;;;21.08;4.30;;;;;;;6.73;89.49;99374.47;5066304;28;20122;-81
2022/02/15 07:13:43;;;;;;;28.77;4.95;;;;;;;6.73;89.55;99379.16;5050921;28;20035;-81
2022/02/15 07:16:10;;;;;;;26.42;4.95;;;;;;;6.68;89.70;99387.66;5067606;28;20044;-81
2022/02/15 07:18:37;;;;;;;20.55;5.13;;;;;;;6.64;89.83;99393.09;5067469;28;20044;-81
2022/02/15 07:21:04;;;;;;;20.33;3.67;;;;;;;6.62;89.76;99384.38;5065933;28;20051;-80
2022/02/15 07:23:30;;;;;;;25.20;4.40;;;;;;;6.60;89.79;99381.19;5085335;28;20071;-82
2022/02/15 07:25:57;;;;;;;31.23;5.50;;;;;;;6.58;89.85;99378.00;5084186;28;20992;-81
2022/02/15 07:28:25;;;;;;;21.58;3.92;;;;;;;6.58;89.78;99378.00;5085543;28;20047;-81
2022/02/15 07:30:52;;;;;;;29.33;4.22;;;;;;;6.57;89.74;99390.13;5064621;28;20047;-82
2022/02/15 07:33:18;;;;;;;28.15;4.32;;;;;;;6.54;89.91;99373.56;5084846;28;20043;-80
2022/02/15 07:35:46;;;;;;;37.35;6.35;;;;;;;6.54;90.21;99382.59;5068007;28;20039;-81
2022/02/15 07:38:13;;;;;;;16.65;4.10;;;;;;;6.54;89.94;99393.56;5085906;28;20039;-81
2022/02/15 07:40:40;;;;;;;25.60;5.15;;;;;;;6.55;89.74;99400.69;5066916;28;20059;-81
2022/02/15 07:43:08;;;;;;;24.80;6.10;;;;;;;6.53;89.99;99414.00;5064103;28;20075;-81
2022/02/15 07:45:37;;;;;;;33.55;5.75;;;;;;;6.54;89.76;99414.81;5080212;28;20051;-81
2022/02/15 07:48:04;;;;;;;21.17;4.60;;;;;;;6.55;90.05;99417.19;5065350;28;20036;-81
2022/02/15 07:50:31;;;;;;;26.10;5.05;;;;;;;6.53;89.63;99411.25;5064611;28;20134;-81
2022/02/15 07:52:58;;;;;;;17.98;4.45;;;;;;;6.53;89.58;99405.75;5081890;28;20043;-82
2022/02/15 07:55:25;;;;;;;23.75;5.18;;;;;;;6.54;89.82;99423.06;5066023;28;20039;-82
2022/02/15 07:57:53;;;;;;;16.95;4.55;;;;;;;6.55;89.65;99416.38;5083463;28;20040;-82
2022/02/15 08:00:21;;;;;;;31.23;5.55;;;;;;;6.53;89.37;99414.00;5064929;28;20044;-82
2022/02/15 08:02:50;;;;;;;24.20;4.20;;;;;;;6.53;89.18;99416.75;5066587;28;20036;-81
2022/02/15 08:05:18;;;;;;;28.58;5.30;;;;;;;6.55;89.17;99432.88;5083978;28;20063;-81
2022/02/15 08:07:49;;;;;;;30.52;5.65;;;;;;;6.55;88.91;99433.69;5084563;28;20040;-82
2022/02/15 08:10:19;;;;;;;20.23;5.00;;;;;;;6.56;88.61;99432.53;5065615;28;20089;-82
2022/02/15 08:12:58;;;;;;;22.38;5.40;;;;;;;6.57;88.45;99442.38;5085456;28;20048;-82
2022/02/15 08:15:28;;;;;;;20.13;4.53;;;;;;;6.58;88.56;99449.50;5065856;28;20051;-82
2022/02/15 08:17:56;;;;;;;29.45;5.53;;;;;;;6.58;87.94;99448.69;5083988;28;20040;-83
2022/02/15 08:20:29;;;;;;;35.90;8.55;;;;;;;6.56;88.01;99435.28;5065410;28;20040;-82
2022/02/15 08:22:56;;;;;;;28.30;5.32;;;;;;;6.56;87.41;99438.03;5084880;28;20077;-83
2022/02/15 08:25:23;;;;;;;26.50;5.78;;;;;;;6.58;87.77;99444.00;5069317;28;20032;-82
2022/02/15 08:27:50;;;;;;;31.00;5.53;;;;;;;6.57;87.45;99441.56;5069001;28;20055;-82
2022/02/15 08:30:38;;;;;;;25.13;6.75;;;;;;;6.59;87.27;99444.78;5068543;28;20059;-81
2022/02/15 08:40:54;;;;;;;22.38;5.40;;;;;;;6.60;86.10;99452.69;5041474;28;20500;-84
2022/02/15 08:44:13;;;;;;;16.00;4.72;;;;;;;6.60;86.10;99460.13;5063062;28;20052;-84
2022/02/15 08:47:10;;;;;;;25.77;6.10;;;;;;;6.64;86.27;99461.03;4985525;28;20092;-81
2022/02/15 08:49:38;;;;;;;26.83;6.22;;;;;;;6.63;85.44;99462.19;5065331;28;20059;-82
2022/02/15 08:52:06;;;;;;;25.60;4.38;;;;;;;6.65;85.54;99465.38;5087690;28;20043;-81
2022/02/15 08:54:33;;;;;;;22.30;5.15;;;;;;;6.63;85.17;99468.47;5065000;28;21200;-82
2022/02/15 08:57:00;;;;;;;24.65;4.93;;;;;;;6.66;85.09;99458.72;5063368;28;20043;-82
2022/02/15 08:59:28;;;;;;;26.77;5.85;;;;;;;6.65;84.91;99462.63;5087101;28;20520;-81
2022/02/15 09:01:58;;;;;;;27.27;4.30;;;;;;;6.65;84.64;99468.94;5067241;28;20557;-83
2022/02/15 09:04:25;;;;;;;37.58;5.15;;;;;;;6.64;84.13;99464.59;5070536;28;20571;-81
2022/02/15 09:06:54;;;;;;;26.63;5.90;;;;;;;6.64;84.27;99448.09;5048851;28;20044;-82
2022/02/15 09:09:22;;;;;;;44.47;6.18;;;;;;;6.64;83.81;99461.84;5069749;28;20138;-83
2022/02/15 09:11:49;;;;;;;32.83;5.90;;;;;;;6.64;83.67;99459.09;5068521;28;20148;-82
2022/02/15 09:15:10;;;;;;;24.55;4.10;;;;;;;6.66;83.06;99462.28;5063198;28;20126;-93
2022/02/15 09:21:10;;;;;;;27.55;5.32;;;;;;;6.72;83.18;99477.38;5080152;28;20123;-90
2022/02/15 09:23:46;;;;;;;25.45;4.65;;;;;;;6.73;82.90;99483.66;5069929;28;20050;-89
2022/02/15 09:26:16;;;;;;;27.17;4.75;;;;;;;6.76;83.14;99477.47;5069724;28;20546;-91
2022/02/15 09:28:43;;;;;;;28.08;6.18;;;;;;;6.79;82.80;99492.47;5066781;28;20131;-90
2022/02/15 09:31:10;;;;;;;23.02;4.10;;;;;;;6.80;82.49;99488.59;5052802;28;20526;-85
2022/02/15 09:33:42;;;;;;;36.83;5.10;;;;;;;6.82;82.48;99486.28;5070213;28;20089;-87
2022/02/15 09:36:42;;;;;;;16.35;4.22;;;;;;;6.85;82.64;99497.41;5083738;28;20561;-86
2022/02/15 09:39:18;;;;;;;;;;;;;;;6.84;81.49;99500.47;5081553;28;20047;-88
2022/02/15 09:42:05;;;;;;;28.05;5.50;;;;;;;6.87;82.66;99499.78;5038671;28;20325;-88
2022/02/15 09:44:35;;;;;;;20.25;5.18;;;;;;;6.83;82.13;99493.41;5087339;28;20043;-88
2022/02/15 09:47:16;;;;;;;21.50;3.95;;;;;;;6.84;81.83;99490.28;5053309;28;20128;-89
2022/02/15 09:49:49;;;;;;;29.05;4.97;;;;;;;6.86;81.73;99485.22;5086418;28;20058;-88
2022/02/15 09:52:23;;;;;;;33.13;5.35;;;;;;;6.89;81.54;99509.28;5069796;28;20048;-89
2022/02/15 09:54:55;;;;;;;21.80;4.75;;;;;;;6.92;81.66;99494.81;5069677;28;20036;-88
2022/02/15 09:57:23;;;;;;;24.17;5.03;;;;;;;6.92;81.21;99491.28;5068880;28;20079;-89
2022/02/15 09:59:52;;;;;;;20.10;5.22;;;;;;;6.93;81.08;99495.63;5086733;28;20040;-89
2022/02/15 10:02:25;;;;;;;22.50;5.10;;;;;;;6.96;81.37;99492.19;5069445;28;20040;-90
2022/02/15 10:04:56;;;;;;;25.90;6.57;;;;;;;6.96;81.46;99490.25;5069374;28;20056;-87
2022/02/15 10:07:26;;;;;;;23.02;5.35;;;;;;;6.99;81.46;99485.97;5064826;28;20570;-89
2022/02/15 10:09:58;;;;;;;22.10;4.97;;;;;;;7.03;81.79;99481.34;5068469;28;20047;-88
2022/02/15 10:12:26;;;;;;;20.02;4.40;;;;;;;7.02;81.22;99485.25;5086905;28;20071;-87
2022/02/15 10:14:55;;;;;;;32.47;6.00;;;;;;;7.03;81.75;99486.88;5086991;28;20525;-88
2022/02/15 10:17:26;;;;;;;35.10;7.20;;;;;;;7.04;81.65;99497.50;5070020;28;20048;-89
2022/02/15 10:19:55;;;;;;;30.02;6.63;;;;;;;7.08;81.96;99503.13;5087560;28;20040;-85
2022/02/15 10:22:25;;;;;;;24.27;6.72;;;;;;;7.08;81.46;99506.66;5068690;28;20641;-88
2022/02/15 10:24:58;;;;;;;33.22;6.80;;;;;;;7.12;81.48;99510.31;5080467;28;20044;-89
2022/02/15 10:27:32;;;;;;;35.38;6.57;;;;;;;7.13;81.58;99525.69;5086658;28;20079;-90
2022/02/15 10:30:15;;;;;;;26.17;6.45;;;;;;;7.15;81.67;99522.56;5066484;28;20479;-89
2022/02/15 10:33:02;;;;;;;30.02;5.07;;;;;;;7.16;80.91;99521.41;5052732;28;20051;-89
2022/02/15 10:35:54;;;;;;;23.70;7.03;;;;;;;7.20;81.10;99519.59;5085866;28;20040;-90
2022/02/15 10:38:30;;;;;;;32.22;5.88;;;;;;;7.24;81.14;99532.28;5067439;28;20043;-87
2022/02/15 10:41:36;;;;;;;19.85;5.35;;;;;;;7.28;80.48;99526.88;5084715;28;20048;-88
2022/02/15 10:44:07;;;;;;;24.63;7.15;;;;;;;7.35;80.74;99521.56;5077325;28;20155;-88
2022/02/15 10:47:00;;;;;;;30.95;5.43;;;;;;;7.40;80.39;99518.53;5086479;28;20641;-88
2022/02/15 10:49:37;;;;;;;26.13;4.95;;;;;;;7.48;80.50;99514.81;5068254;28;20044;-86
2022/02/15 10:52:04;;;;;;;28.75;6.70;;;;;;;7.51;80.19;99494.81;5069309;28;20044;-87
2022/02/15 10:54:31;;;;;;;25.02;5.38;;;;;;;7.55;79.94;99492.16;5086604;28;20075;-89
2022/02/15 10:57:01;;;;;;;29.67;5.47;;;;;;;7.62;80.02;99500.59;5051224;28;20570;-88
2022/02/15 10:59:32;;;;;;;35.83;6.30;;;;;;;7.68;79.65;99496.41;5064942;28;20808;-84
2022/02/15 11:02:01;;;;;;;20.50;4.45;;;;;;;7.69;79.80;99500.78;5042407;28;20040;-89
2022/02/15 11:04:33;;;;;;;22.48;4.00;;;;;;;7.69;79.25;99507.09;5063722;28;20052;-87
2022/02/15 11:07:06;;;;;;;;;;;;;;;7.70;78.53;99529.94;5068070;28;20040;-88
2022/02/15 11:09:37;;;;;;;;;;;;;;;7.72;78.16;99536.69;5067222;28;19931;-88
2022/02/15 11:12:20;;;;;;;22.77;4.45;;;;;;;7.78;79.14;99535.25;5068381;28;19969;-89
2022/02/15 11:14:52;;;;;;;20.17;4.82;;;;;;;7.87;79.38;99516.59;5067255;28;20050;-83
2022/02/15 11:17:19;;;;;;;20.00;4.00;;;;;;;7.93;79.27;99542.72;5066497;28;20059;-89
2022/02/15 11:19:57;;;;;;;30.88;7.07;;;;;;;7.96;78.52;99546.72;5083938;28;20505;-89
2022/02/15 11:27:13;;;;;;;;;;;;;;;;;;;;;
2022/02/15 11:40:22;;;;;;;;;;;;;;;;;;;;;
2022/02/15 11:53:50;;;;;;;;;;;;;;;;;;;;;
2022/02/15 11:57:49;;;;;;;;;;;;;;;;;;;;;
2022/02/15 12:16:33;;;;;;;16.27;3.20;;;;;;;8.25;74.37;99549.00;4775844;29;20063;-83
2022/02/15 12:55:03;;;;;;;;;;;;;;;8.49;74.15;99523.16;5822658;24;20102;-89
2022/02/15 12:59:47;;;;;;;;;;;;;;;;;;;;;
2022/02/15 13:36:45;;;;;;;;;;;;;;;;;;;;;
2022/02/15 16:40:19;;;;;;;23.25;4.65;;;;;;;8.25;76.80;99265.00;4524479;27;15093732;-85
2022/02/15 16:43:00;;;;;;;32.10;8.18;;;;;;;8.23;76.59;99255.50;5037843;28;20052;-84
2022/02/15 16:45:40;;;;;;;20.20;5.22;;;;;;;8.18;76.92;99248.31;5079259;28;22539;-85
2022/02/15 16:48:11;;;;;;;26.08;4.55;;;;;;;8.18;77.25;99239.28;5080784;28;20040;-85
2022/02/15 18:47:28;;;;;;;32.03;7.60;;;;;;;7.49;83.09;99075.84;5016883;28;20069;-80
2022/02/15 18:54:26;;;;;;;24.38;5.70;;;;;;;7.45;83.99;99063.94;5015674;28;20123;-83
2022/02/15 18:56:56;;;;;;;20.65;6.03;;;;;;;7.43;83.42;99060.78;4997497;28;20041;-80
2022/02/15 18:59:25;;;;;;;22.60;5.57;;;;;;;7.44;83.01;99040.31;5001089;28;20564;-80
2022/02/15 19:01:55;;;;;;;20.88;5.93;;;;;;;7.47;83.23;99039.59;5014582;28;20038;-79
2022/02/15 19:04:25;;;;;;;13.00;5.22;;;;;;;7.45;83.75;99033.66;4996448;28;20045;-79
2022/02/15 19:07:02;;;;;;;23.10;6.47;;;;;;;7.43;83.83;99022.22;4999761;28;21411;-81
2022/02/15 19:09:52;;;;;;;21.00;8.27;;;;;;;7.45;83.58;98994.31;5017836;28;20046;-80
2022/02/15 19:12:25;;;;;;;26.55;8.80;;;;;;;7.46;83.86;98976.63;4998988;28;20493;-80
2022/02/15 19:14:52;;;;;;;22.77;7.28;;;;;;;7.46;84.13;98980.19;4997636;28;20091;-79
2022/02/15 19:17:55;;;;;;;;;;;;;;;;;;;;;
2022/02/15 19:20:26;;;;;;;22.27;7.03;;;;;;;7.45;84.46;98978.59;5019783;28;20059;-90